sensor_id;sensor_type;location;lat;lon;timestamp;pressure;altitude;pressure_sealevel;temperature;humidity
75290;BME280;63883;48.996;20.804;2024-02-26T00:00:35;95815.81;;;6.12;100.00
75290;BME280;63883;48.996;20.804;2024-02-26T00:03:21;95803.91;;;6.17;100.00
75290;BME280;63883;48.996;20.804;2024-02-26T00:05:46;95801.41;;;6.16;100.00
75290;BME280;63883;48.996;20.804;2024-02-26T00:08:12;95803.09;;;6.15;100.00
75290;BME280;63883;48.996;20.804;2024-02-26T00:10:38;95799.84;;;6.10;100.00
75290;BME280;63883;48.996;20.804;2024-02-26T00:13:04;95796.50;;;6.10;100.00
75290;BME280;63883;48.996;20.804;2024-02-26T00:15:30;95805.97;;;6.00;100.00
75290;BME280;63883;48.996;20.804;2024-02-26T00:17:56;95805.09;;;6.01;100.00
75290;BME280;63883;48.996;20.804;2024-02-26T00:20:21;95802.53;;;6.04;100.00
75290;BME280;63883;48.996;20.804;2024-02-26T00:22:47;95804.09;;;6.08;100.00
75290;BME280;63883;48.996;20.804;2024-02-26T00:25:12;95802.53;;;6.04;100.00
75290;BME280;63883;48.996;20.804;2024-02-26T00:27:39;95807.66;;;6.00;100.00
75290;BME280;63883;48.996;20.804;2024-02-26T00:30:07;95813.44;;;6.06;100.00
75290;BME280;63883;48.996;20.804;2024-02-26T00:32:33;95804.06;;;6.11;100.00
75290;BME280;63883;48.996;20.804;2024-02-26T00:34:58;95808.41;;;6.05;100.00
75290;BME280;63883;48.996;20.804;2024-02-26T00:37:24;95801.75;;;6.01;100.00
75290;BME280;63883;48.996;20.804;2024-02-26T00:39:50;95802.56;;;6.01;100.00
75290;BME280;63883;48.996;20.804;2024-02-26T00:42:15;95800.84;;;6.03;100.00
75290;BME280;63883;48.996;20.804;2024-02-26T00:44:41;95802.56;;;6.01;100.00
75290;BME280;63883;48.996;20.804;2024-02-26T00:47:07;95799.16;;;6.04;100.00
75290;BME280;63883;48.996;20.804;2024-02-26T00:49:32;95798.94;;;6.13;100.00
75290;BME280;63883;48.996;20.804;2024-02-26T00:51:58;95798.66;;;6.25;100.00
75290;BME280;63883;48.996;20.804;2024-02-26T00:54:24;95788.72;;;6.17;100.00
75290;BME280;63883;48.996;20.804;2024-02-26T00:56:49;95795.56;;;6.12;100.00
75290;BME280;63883;48.996;20.804;2024-02-26T00:59:15;95795.50;;;6.15;100.00
75290;BME280;63883;48.996;20.804;2024-02-26T01:01:41;95788.03;;;6.11;100.00
75290;BME280;63883;48.996;20.804;2024-02-26T01:04:06;95776.09;;;6.16;100.00
75290;BME280;63883;48.996;20.804;2024-02-26T01:06:32;95781.28;;;6.10;100.00
75290;BME280;63883;48.996;20.804;2024-02-26T01:08:58;95786.56;;;6.01;100.00
75290;BME280;63883;48.996;20.804;2024-02-26T01:11:23;95789.13;;;5.99;100.00
75290;BME280;63883;48.996;20.804;2024-02-26T01:13:49;95778.94;;;6.02;100.00
75290;BME280;63883;48.996;20.804;2024-02-26T01:16:19;95774.91;;;5.94;100.00
75290;BME280;63883;48.996;20.804;2024-02-26T01:18:44;95777.56;;;5.89;100.00
75290;BME280;63883;48.996;20.804;2024-02-26T01:21:10;95772.84;;;6.11;100.00
75290;BME280;63883;48.996;20.804;2024-02-26T01:23:36;95784.41;;;6.21;100.00
75290;BME280;63883;48.996;20.804;2024-02-26T01:26:02;95769.38;;;6.13;100.00
75290;BME280;63883;48.996;20.804;2024-02-26T01:28:28;95776.06;;;6.17;100.00
75290;BME280;63883;48.996;20.804;2024-02-26T01:30:54;95775.53;;;6.03;100.00
75290;BME280;63883;48.996;20.804;2024-02-26T01:33:19;95778.09;;;6.02;100.00
75290;BME280;63883;48.996;20.804;2024-02-26T01:35:45;95773.69;;;6.11;100.00
75290;BME280;63883;48.996;20.804;2024-02-26T01:38:12;95773.50;;;6.19;100.00
75290;BME280;63883;48.996;20.804;2024-02-26T01:40:38;95774.63;;;6.06;100.00
75290;BME280;63883;48.996;20.804;2024-02-26T01:43:03;95769.63;;;6.04;100.00
75290;BME280;63883;48.996;20.804;2024-02-26T01:45:29;95763.56;;;6.10;100.00
75290;BME280;63883;48.996;20.804;2024-02-26T01:47:55;95769.63;;;6.04;100.00
75290;BME280;63883;48.996;20.804;2024-02-26T01:50:22;95766.09;;;6.11;100.00
75290;BME280;63883;48.996;20.804;2024-02-26T01:52:49;95772.38;;;5.94;100.00
75290;BME280;63883;48.996;20.804;2024-02-26T01:55:17;95770.81;;;5.88;100.00
75290;BME280;63883;48.996;20.804;2024-02-26T01:57:44;95778.50;;;5.83;100.00
75290;BME280;63883;48.996;20.804;2024-02-26T02:00:12;95780.09;;;5.86;100.00
75290;BME280;63883;48.996;20.804;2024-02-26T02:02:38;95780.25;;;5.80;100.00
75290;BME280;63883;48.996;20.804;2024-02-26T02:05:06;95780.28;;;5.78;100.00
75290;BME280;63883;48.996;20.804;2024-02-26T02:07:32;95781.91;;;5.81;100.00
75290;BME280;63883;48.996;20.804;2024-02-26T02:09:58;95787.03;;;5.78;100.00
75290;BME280;63883;48.996;20.804;2024-02-26T02:12:24;95798.91;;;5.76;100.00
75290;BME280;63883;48.996;20.804;2024-02-26T02:14:50;95804.00;;;5.73;100.00
75290;BME280;63883;48.996;20.804;2024-02-26T02:17:16;95800.75;;;5.68;100.00
75290;BME280;63883;48.996;20.804;2024-02-26T02:19:42;95789.50;;;5.81;100.00
75290;BME280;63883;48.996;20.804;2024-02-26T02:22:07;95789.53;;;5.79;100.00
75290;BME280;63883;48.996;20.804;2024-02-26T02:24:33;95782.72;;;5.83;100.00
75290;BME280;63883;48.996;20.804;2024-02-26T02:26:59;95788.63;;;5.82;100.00
75290;BME280;63883;48.996;20.804;2024-02-26T02:29:25;95790.09;;;5.94;100.00
75290;BME280;63883;48.996;20.804;2024-02-26T02:31:53;95787.69;;;5.86;100.00
75290;BME280;63883;48.996;20.804;2024-02-26T02:34:20;95787.78;;;5.83;100.00
75290;BME280;63883;48.996;20.804;2024-02-26T02:36:52;95785.44;;;5.74;100.00
75290;BME280;63883;48.996;20.804;2024-02-26T02:39:18;95792.16;;;5.75;100.00
75290;BME280;63883;48.996;20.804;2024-02-26T02:41:44;95795.38;;;5.83;100.00
75290;BME280;63883;48.996;20.804;2024-02-26T02:44:10;95793.59;;;5.86;100.00
75290;BME280;63883;48.996;20.804;2024-02-26T02:46:35;95781.75;;;5.90;100.00
75290;BME280;63883;48.996;20.804;2024-02-26T02:49:01;95769.13;;;5.87;100.00
75290;BME280;63883;48.996;20.804;2024-02-26T02:51:27;95770.13;;;5.80;100.00
75290;BME280;63883;48.996;20.804;2024-02-26T02:53:53;95771.81;;;5.79;100.00
75290;BME280;63883;48.996;20.804;2024-02-26T02:56:19;95765.00;;;5.83;100.00
75290;BME280;63883;48.996;20.804;2024-02-26T02:58:45;95763.22;;;5.86;100.00
75290;BME280;63883;48.996;20.804;2024-02-26T03:01:10;95768.28;;;5.88;100.00
75290;BME280;63883;48.996;20.804;2024-02-26T03:03:37;95762.47;;;5.83;100.00
75290;BME280;63883;48.996;20.804;2024-02-26T03:06:03;95767.44;;;5.89;100.00
75290;BME280;63883;48.996;20.804;2024-02-26T03:08:29;95768.44;;;5.79;100.00
75290;BME280;63883;48.996;20.804;2024-02-26T03:10:54;95761.66;;;5.81;100.00
75290;BME280;63883;48.996;20.804;2024-02-26T03:13:20;95760.72;;;5.85;100.00
75290;BME280;63883;48.996;20.804;2024-02-26T03:15:46;95755.56;;;5.91;100.00
75290;BME280;63883;48.996;20.804;2024-02-26T03:18:12;95763.09;;;5.94;100.00
75290;BME280;63883;48.996;20.804;2024-02-26T03:20:37;95762.34;;;5.91;100.00
75290;BME280;63883;48.996;20.804;2024-02-26T03:23:03;95762.50;;;5.81;100.00
75290;BME280;63883;48.996;20.804;2024-02-26T03:25:29;95758.28;;;5.82;100.00
75290;BME280;63883;48.996;20.804;2024-02-26T03:27:55;95771.47;;;5.98;100.00
75290;BME280;63883;48.996;20.804;2024-02-26T03:30:20;95760.94;;;6.14;100.00
75290;BME280;63883;48.996;20.804;2024-02-26T03:32:46;95767.66;;;6.15;100.00
75290;BME280;63883;48.996;20.804;2024-02-26T03:35:13;95770.13;;;6.18;100.00
75290;BME280;63883;48.996;20.804;2024-02-26T03:37:38;95771.88;;;6.16;100.00
75290;BME280;63883;48.996;20.804;2024-02-26T03:40:04;95764.56;;;6.04;100.00
75290;BME280;63883;48.996;20.804;2024-02-26T03:42:31;95761.38;;;5.95;100.00
75290;BME280;63883;48.996;20.804;2024-02-26T03:44:56;95761.50;;;5.90;100.00
75290;BME280;63883;48.996;20.804;2024-02-26T03:47:22;95770.63;;;5.97;100.00
75290;BME280;63883;48.996;20.804;2024-02-26T03:49:48;95763.81;;;5.99;100.00
75290;BME280;63883;48.996;20.804;2024-02-26T03:52:14;95769.78;;;5.97;100.00
75290;BME280;63883;48.996;20.804;2024-02-26T03:54:40;95774.03;;;5.96;100.00
75290;BME280;63883;48.996;20.804;2024-02-26T03:57:06;95758.69;;;6.02;100.00
75290;BME280;63883;48.996;20.804;2024-02-26T03:59:31;95760.34;;;6.03;100.00
75290;BME280;63883;48.996;20.804;2024-02-26T04:01:57;95758.72;;;6.01;100.00
75290;BME280;63883;48.996;20.804;2024-02-26T04:04:23;95758.69;;;6.02;100.00
75290;BME280;63883;48.996;20.804;2024-02-26T04:06:48;95757.97;;;5.97;100.00
75290;BME280;63883;48.996;20.804;2024-02-26T04:09:14;95758.75;;;5.99;100.00
75290;BME280;63883;48.996;20.804;2024-02-26T04:11:40;95758.88;;;5.95;100.00
75290;BME280;63883;48.996;20.804;2024-02-26T04:14:06;95755.34;;;6.00;100.00
75290;BME280;63883;48.996;20.804;2024-02-26T04:16:34;95767.16;;;6.01;100.00
75290;BME280;63883;48.996;20.804;2024-02-26T04:19:01;95755.28;;;6.03;100.00
75290;BME280;63883;48.996;20.804;2024-02-26T04:21:27;95757.84;;;6.02;100.00
75290;BME280;63883;48.996;20.804;2024-02-26T04:23:52;95757.75;;;6.06;100.00
75290;BME280;63883;48.996;20.804;2024-02-26T04:26:21;95760.03;;;6.17;100.00
75290;BME280;63883;48.996;20.804;2024-02-26T04:28:47;95748.22;;;6.17;100.00
75290;BME280;63883;48.996;20.804;2024-02-26T04:31:13;95751.41;;;6.25;100.00
75290;BME280;63883;48.996;20.804;2024-02-26T04:33:38;95745.59;;;6.20;100.00
75290;BME280;63883;48.996;20.804;2024-02-26T04:36:04;95744.66;;;6.24;100.00
75290;BME280;63883;48.996;20.804;2024-02-26T04:38:30;95745.50;;;6.25;100.00
75290;BME280;63883;48.996;20.804;2024-02-26T04:40:56;95755.44;;;6.33;100.00
75290;BME280;63883;48.996;20.804;2024-02-26T04:43:21;95752.66;;;6.42;100.00
75290;BME280;63883;48.996;20.804;2024-02-26T04:45:47;95751.03;;;6.41;100.00
75290;BME280;63883;48.996;20.804;2024-02-26T04:48:13;95752.00;;;6.35;100.00
75290;BME280;63883;48.996;20.804;2024-02-26T04:50:39;95744.66;;;6.24;100.00
75290;BME280;63883;48.996;20.804;2024-02-26T04:53:04;95751.44;;;6.24;100.00
75290;BME280;63883;48.996;20.804;2024-02-26T04:55:30;95753.00;;;6.28;100.00
75290;BME280;63883;48.996;20.804;2024-02-26T04:57:56;95746.19;;;6.32;100.00
75290;BME280;63883;48.996;20.804;2024-02-26T05:00:21;95753.06;;;6.26;100.00
75290;BME280;63883;48.996;20.804;2024-02-26T05:02:47;95753.66;;;6.36;100.00
75290;BME280;63883;48.996;20.804;2024-02-26T05:05:13;95750.59;;;6.23;100.00
75290;BME280;63883;48.996;20.804;2024-02-26T05:07:41;95759.75;;;6.27;100.00
75290;BME280;63883;48.996;20.804;2024-02-26T05:10:08;95758.75;;;6.35;100.00
75290;BME280;63883;48.996;20.804;2024-02-26T05:12:33;95746.78;;;6.41;100.00
75290;BME280;63883;48.996;20.804;2024-02-26T05:15:02;95749.88;;;6.52;100.00
75290;BME280;63883;48.996;20.804;2024-02-26T05:17:28;95742.28;;;6.52;100.00
75290;BME280;63883;48.996;20.804;2024-02-26T05:19:54;95740.72;;;6.48;100.00
75290;BME280;63883;48.996;20.804;2024-02-26T05:22:19;95742.44;;;6.46;100.00
75290;BME280;63883;48.996;20.804;2024-02-26T05:24:45;95743.75;;;6.61;100.00
75290;BME280;63883;48.996;20.804;2024-02-26T05:27:11;95739.56;;;6.60;100.00
75290;BME280;63883;48.996;20.804;2024-02-26T05:29:38;95745.44;;;6.62;100.00
75290;BME280;63883;48.996;20.804;2024-02-26T05:32:04;95752.69;;;6.76;100.00
75290;BME280;63883;48.996;20.804;2024-02-26T05:34:31;95751.72;;;6.80;100.00
75290;BME280;63883;48.996;20.804;2024-02-26T05:36:56;95745.94;;;6.75;100.00
75290;BME280;63883;48.996;20.804;2024-02-26T05:39:22;95741.50;;;6.49;100.00
75290;BME280;63883;48.996;20.804;2024-02-26T05:41:48;95745.81;;;6.47;100.00
75290;BME280;63883;48.996;20.804;2024-02-26T05:44:15;95739.63;;;6.57;100.00
75290;BME280;63883;48.996;20.804;2024-02-26T05:46:41;95750.31;;;6.34;100.00
75290;BME280;63883;48.996;20.804;2024-02-26T05:49:07;95742.69;;;6.36;100.00
75290;BME280;63883;48.996;20.804;2024-02-26T05:51:33;95745.34;;;6.31;100.00
75290;BME280;63883;48.996;20.804;2024-02-26T05:53:59;95743.06;;;6.20;100.00
75290;BME280;63883;48.996;20.804;2024-02-26T05:56:24;95743.75;;;6.27;100.00
75290;BME280;63883;48.996;20.804;2024-02-26T05:58:50;95752.41;;;6.18;100.00
75290;BME280;63883;48.996;20.804;2024-02-26T06:01:17;95756.69;;;6.15;100.00
75290;BME280;63883;48.996;20.804;2024-02-26T06:03:43;95773.53;;;6.17;100.00
75290;BME280;63883;48.996;20.804;2024-02-26T06:06:10;95770.06;;;6.20;100.00
75290;BME280;63883;48.996;20.804;2024-02-26T06:08:36;95774.34;;;6.19;100.00
75290;BME280;63883;48.996;20.804;2024-02-26T06:11:06;95769.13;;;6.25;100.00
75290;BME280;63883;48.996;20.804;2024-02-26T06:13:33;95774.91;;;6.31;100.00
75290;BME280;63883;48.996;20.804;2024-02-26T06:15:59;95778.13;;;6.37;100.00
75290;BME280;63883;48.996;20.804;2024-02-26T06:18:25;95773.22;;;6.30;100.00
75290;BME280;63883;48.996;20.804;2024-02-26T06:20:50;95785.03;;;6.31;100.00
75290;BME280;63883;48.996;20.804;2024-02-26T06:23:16;95781.63;;;6.32;100.00
75290;BME280;63883;48.996;20.804;2024-02-26T06:25:42;95783.16;;;6.39;100.00
75290;BME280;63883;48.996;20.804;2024-02-26T06:28:12;95794.28;;;6.32;100.00
75290;BME280;63883;48.996;20.804;2024-02-26T06:30:37;95792.50;;;6.35;100.00
75290;BME280;63883;48.996;20.804;2024-02-26T06:33:04;95788.13;;;6.42;100.00
75290;BME280;63883;48.996;20.804;2024-02-26T06:35:29;95787.16;;;6.47;100.00
75290;BME280;63883;48.996;20.804;2024-02-26T06:37:55;95787.75;;;6.57;100.00
75290;BME280;63883;48.996;20.804;2024-02-26T06:40:21;95792.06;;;6.55;100.00
75290;BME280;63883;48.996;20.804;2024-02-26T06:42:47;95785.19;;;6.58;100.00
75290;BME280;63883;48.996;20.804;2024-02-26T06:45:13;95787.59;;;6.63;100.00
75290;BME280;63883;48.996;20.804;2024-02-26T06:47:38;95785.00;;;6.66;100.00
75290;BME280;63883;48.996;20.804;2024-02-26T06:50:04;95780.75;;;6.68;100.00
75290;BME280;63883;48.996;20.804;2024-02-26T06:52:30;95792.44;;;6.72;100.00
75290;BME280;63883;48.996;20.804;2024-02-26T06:54:56;95789.75;;;6.78;100.00
75290;BME280;63883;48.996;20.804;2024-02-26T06:57:21;95791.31;;;6.84;100.00
75290;BME280;63883;48.996;20.804;2024-02-26T06:59:47;95789.69;;;6.81;100.00
75290;BME280;63883;48.996;20.804;2024-02-26T07:02:13;95786.19;;;6.85;100.00
75290;BME280;63883;48.996;20.804;2024-02-26T07:04:39;95781.31;;;6.78;100.00
75290;BME280;63883;48.996;20.804;2024-02-26T07:07:07;95792.28;;;6.78;100.00
75290;BME280;63883;48.996;20.804;2024-02-26T07:09:32;95787.91;;;6.85;100.00
75290;BME280;63883;48.996;20.804;2024-02-26T07:11:58;95786.97;;;6.89;100.00
75290;BME280;63883;48.996;20.804;2024-02-26T07:14:24;95784.22;;;6.96;100.00
75290;BME280;63883;48.996;20.804;2024-02-26T07:16:50;95783.44;;;6.94;100.00
75290;BME280;63883;48.996;20.804;2024-02-26T07:19:16;95789.28;;;6.98;100.00
75290;BME280;63883;48.996;20.804;2024-02-26T07:21:43;95790.78;;;7.05;100.00
75290;BME280;63883;48.996;20.804;2024-02-26T07:24:08;95785.50;;;7.13;100.00
75290;BME280;63883;48.996;20.804;2024-02-26T07:26:34;95788.09;;;7.10;100.00
75290;BME280;63883;48.996;20.804;2024-02-26T07:29:00;95779.44;;;7.18;100.00
75290;BME280;63883;48.996;20.804;2024-02-26T07:31:26;95787.59;;;7.28;100.00
75290;BME280;63883;48.996;20.804;2024-02-26T07:33:52;95791.56;;;7.38;100.00
75290;BME280;63883;48.996;20.804;2024-02-26T07:36:18;95786.19;;;7.49;100.00
75290;BME280;63883;48.996;20.804;2024-02-26T07:38:44;95799.16;;;7.69;100.00
75290;BME280;63883;48.996;20.804;2024-02-26T07:41:11;95798.53;;;7.90;100.00
75290;BME280;63883;48.996;20.804;2024-02-26T07:43:40;95793.72;;;8.09;100.00
75290;BME280;63883;48.996;20.804;2024-02-26T07:46:06;95803.97;;;8.06;100.00
75290;BME280;63883;48.996;20.804;2024-02-26T07:48:32;95807.47;;;8.30;100.00
75290;BME280;63883;48.996;20.804;2024-02-26T07:50:57;95798.69;;;8.41;100.00
75290;BME280;63883;48.996;20.804;2024-02-26T07:53:25;95817.75;;;8.54;100.00
75290;BME280;63883;48.996;20.804;2024-02-26T07:55:51;95807.97;;;8.69;100.00
75290;BME280;63883;48.996;20.804;2024-02-26T07:58:17;95812.06;;;8.73;100.00
75290;BME280;63883;48.996;20.804;2024-02-26T08:00:42;95812.63;;;8.81;100.00
75290;BME280;63883;48.996;20.804;2024-02-26T08:03:09;95808.09;;;8.90;100.00
75290;BME280;63883;48.996;20.804;2024-02-26T08:05:34;95815.69;;;8.92;100.00
75290;BME280;63883;48.996;20.804;2024-02-26T08:08:00;95823.13;;;8.96;100.00
75290;BME280;63883;48.996;20.804;2024-02-26T08:10:26;95814.63;;;8.97;100.00
75290;BME280;63883;48.996;20.804;2024-02-26T08:12:52;95819.69;;;8.99;100.00
75290;BME280;63883;48.996;20.804;2024-02-26T08:15:17;95814.25;;;9.08;100.00
75290;BME280;63883;48.996;20.804;2024-02-26T08:17:44;95796.53;;;9.07;100.00
75290;BME280;63883;48.996;20.804;2024-02-26T08:20:10;95812.28;;;9.16;100.00
75290;BME280;63883;48.996;20.804;2024-02-26T08:22:36;95812.47;;;9.12;100.00
75290;BME280;63883;48.996;20.804;2024-02-26T08:25:02;95817.50;;;9.13;100.00
75290;BME280;63883;48.996;20.804;2024-02-26T08:27:32;95814.16;;;9.11;100.00
75290;BME280;63883;48.996;20.804;2024-02-26T08:29:58;95816.53;;;9.16;100.00
75290;BME280;63883;48.996;20.804;2024-02-26T08:32:23;95822.47;;;9.16;100.00
75290;BME280;63883;48.996;20.804;2024-02-26T08:34:49;95825.69;;;9.21;100.00
75290;BME280;63883;48.996;20.804;2024-02-26T08:37:15;95819.16;;;9.14;100.00
75290;BME280;63883;48.996;20.804;2024-02-26T08:39:40;95815.53;;;9.21;100.00
75290;BME280;63883;48.996;20.804;2024-02-26T08:42:06;95821.53;;;9.19;100.00
75290;BME280;63883;48.996;20.804;2024-02-26T08:44:32;95818.53;;;9.32;100.00
75290;BME280;63883;48.996;20.804;2024-02-26T08:46:58;95821.72;;;9.37;100.00
75290;BME280;63883;48.996;20.804;2024-02-26T08:49:24;95825.06;;;9.39;100.00
75290;BME280;63883;48.996;20.804;2024-02-26T08:51:49;95824.19;;;9.40;100.00
75290;BME280;63883;48.996;20.804;2024-02-26T08:54:15;95821.53;;;9.44;100.00
75290;BME280;63883;48.996;20.804;2024-02-26T08:56:41;95823.09;;;9.48;100.00
75290;BME280;63883;48.996;20.804;2024-02-26T08:59:06;95817.25;;;9.44;100.00
75290;BME280;63883;48.996;20.804;2024-02-26T09:01:32;95827.94;;;9.54;100.00
75290;BME280;63883;48.996;20.804;2024-02-26T09:03:58;95814.38;;;9.53;100.00
75290;BME280;63883;48.996;20.804;2024-02-26T09:06:24;95814.50;;;9.50;100.00
75290;BME280;63883;48.996;20.804;2024-02-26T09:08:49;95825.19;;;9.60;100.00
75290;BME280;63883;48.996;20.804;2024-02-26T09:11:15;95829.38;;;9.61;100.00
75290;BME280;63883;48.996;20.804;2024-02-26T09:13:41;95820.13;;;9.58;100.00
75290;BME280;63883;48.996;20.804;2024-02-26T09:16:08;95834.47;;;9.61;100.00
75290;BME280;63883;48.996;20.804;2024-02-26T09:18:33;95825.13;;;9.61;100.00
75290;BME280;63883;48.996;20.804;2024-02-26T09:20:59;95832.72;;;9.63;100.00
75290;BME280;63883;48.996;20.804;2024-02-26T09:23:25;95832.06;;;9.58;100.00
75290;BME280;63883;48.996;20.804;2024-02-26T09:25:51;95837.06;;;9.59;100.00
75290;BME280;63883;48.996;20.804;2024-02-26T09:28:17;95836.97;;;9.62;100.00
75290;BME280;63883;48.996;20.804;2024-02-26T09:30:44;95830.41;;;9.57;100.00
75290;BME280;63883;48.996;20.804;2024-02-26T09:33:09;95819.53;;;9.52;100.00
75290;BME280;63883;48.996;20.804;2024-02-26T09:35:36;95834.81;;;9.52;100.00
75290;BME280;63883;48.996;20.804;2024-02-26T09:38:02;95837.19;;;9.56;100.00
75290;BME280;63883;48.996;20.804;2024-02-26T09:40:28;95837.31;;;9.53;100.00
75290;BME280;63883;48.996;20.804;2024-02-26T09:42:59;95841.34;;;9.59;100.00
75290;BME280;63883;48.996;20.804;2024-02-26T09:45:28;95842.03;;;9.64;100.00
75290;BME280;63883;48.996;20.804;2024-02-26T09:47:55;95842.16;;;9.59;100.00
75290;BME280;63883;48.996;20.804;2024-02-26T09:50:21;95852.31;;;9.61;100.00
75290;BME280;63883;48.996;20.804;2024-02-26T09:52:48;95847.78;;;9.69;100.00
75290;BME280;63883;48.996;20.804;2024-02-26T09:55:15;95841.75;;;9.71;100.00
75290;BME280;63883;48.996;20.804;2024-02-26T09:57:45;95844.34;;;9.70;100.00
75290;BME280;63883;48.996;20.804;2024-02-26T10:00:17;95850.06;;;9.76;100.00
75290;BME280;63883;48.996;20.804;2024-02-26T10:02:46;95849.25;;;9.74;100.00
75290;BME280;63883;48.996;20.804;2024-02-26T10:05:16;95855.81;;;9.82;100.00
75290;BME280;63883;48.996;20.804;2024-02-26T10:07:44;95854.97;;;9.81;100.00
75290;BME280;63883;48.996;20.804;2024-02-26T10:10:10;95854.34;;;9.74;100.00
75290;BME280;63883;48.996;20.804;2024-02-26T10:12:36;95855.72;;;9.60;100.00
75290;BME280;63883;48.996;20.804;2024-02-26T10:15:02;95841.47;;;9.56;100.00
75290;BME280;63883;48.996;20.804;2024-02-26T10:17:28;95856.91;;;9.74;100.00
75290;BME280;63883;48.996;20.804;2024-02-26T10:19:54;95858.31;;;9.83;100.00
75290;BME280;63883;48.996;20.804;2024-02-26T10:22:22;95843.91;;;9.82;100.00
75290;BME280;63883;48.996;20.804;2024-02-26T10:24:48;95853.72;;;9.93;100.00
75290;BME280;63883;48.996;20.804;2024-02-26T10:27:15;95856.81;;;10.01;100.00
75290;BME280;63883;48.996;20.804;2024-02-26T10:29:41;95861.97;;;9.99;100.00
75290;BME280;63883;48.996;20.804;2024-02-26T10:32:09;95850.94;;;9.99;100.00
75290;BME280;63883;48.996;20.804;2024-02-26T10:34:35;95853.84;;;10.11;100.00
75290;BME280;63883;48.996;20.804;2024-02-26T10:37:05;95857.06;;;10.16;100.00
75290;BME280;63883;48.996;20.804;2024-02-26T10:39:30;95851.94;;;10.18;100.00
75290;BME280;63883;48.996;20.804;2024-02-26T10:41:56;95839.84;;;10.23;100.00
75290;BME280;63883;48.996;20.804;2024-02-26T10:44:22;95857.88;;;10.18;100.00
75290;BME280;63883;48.996;20.804;2024-02-26T10:46:48;95858.22;;;10.31;100.00
75290;BME280;63883;48.996;20.804;2024-02-26T10:49:16;95844.66;;;10.31;100.00
75290;BME280;63883;48.996;20.804;2024-02-26T10:51:45;95843.66;;;10.35;100.00
75290;BME280;63883;48.996;20.804;2024-02-26T10:54:16;95855.97;;;10.45;100.00
75290;BME280;63883;48.996;20.804;2024-02-26T10:56:42;95848.19;;;10.50;100.00
75290;BME280;63883;48.996;20.804;2024-02-26T10:59:12;95852.44;;;10.49;100.00
75290;BME280;63883;48.996;20.804;2024-02-26T11:01:38;95855.69;;;10.53;100.00
75290;BME280;63883;48.996;20.804;2024-02-26T11:04:08;95836.41;;;10.46;100.00
75290;BME280;63883;48.996;20.804;2024-02-26T11:06:34;95851.47;;;10.52;100.00
75290;BME280;63883;48.996;20.804;2024-02-26T11:09:02;95840.78;;;10.44;100.00
75290;BME280;63883;48.996;20.804;2024-02-26T11:11:31;95836.56;;;10.43;100.00
75290;BME280;63883;48.996;20.804;2024-02-26T11:13:58;95845.88;;;10.44;100.00
75290;BME280;63883;48.996;20.804;2024-02-26T11:16:26;95837.44;;;10.42;100.00
75290;BME280;63883;48.996;20.804;2024-02-26T11:18:53;95840.63;;;10.47;100.00
75290;BME280;63883;48.996;20.804;2024-02-26T11:21:21;95837.00;;;10.52;100.00
75290;BME280;63883;48.996;20.804;2024-02-26T11:23:57;95838.81;;;10.50;100.00
75290;BME280;63883;48.996;20.804;2024-02-26T11:26:23;95841.16;;;10.55;100.00
75290;BME280;63883;48.996;20.804;2024-02-26T11:28:52;95837.13;;;10.71;100.00
75290;BME280;63883;48.996;20.804;2024-02-26T11:31:18;95832.63;;;10.78;100.00
75290;BME280;63883;48.996;20.804;2024-02-26T11:33:52;95843.75;;;10.75;100.00
75290;BME280;63883;48.996;20.804;2024-02-26T11:36:18;95839.38;;;10.79;100.00
75290;BME280;63883;48.996;20.804;2024-02-26T11:38:46;95833.31;;;10.81;100.00
75290;BME280;63883;48.996;20.804;2024-02-26T11:41:15;95830.25;;;10.73;100.00
75290;BME280;63883;48.996;20.804;2024-02-26T11:46:27;95835.16;;;10.78;100.00
75290;BME280;63883;48.996;20.804;2024-02-26T11:48:56;95837.53;;;10.82;100.00
75290;BME280;63883;48.996;20.804;2024-02-26T11:51:32;95832.66;;;10.76;100.00
75290;BME280;63883;48.996;20.804;2024-02-26T11:53:58;95836.16;;;10.74;100.00
75290;BME280;63883;48.996;20.804;2024-02-26T11:56:24;95838.97;;;10.68;100.00
75290;BME280;63883;48.996;20.804;2024-02-26T11:59:09;95833.69;;;10.72;100.00
75290;BME280;63883;48.996;20.804;2024-02-26T12:01:45;95827.00;;;10.70;100.00
75290;BME280;63883;48.996;20.804;2024-02-26T12:04:18;95838.91;;;10.69;100.00
75290;BME280;63883;48.996;20.804;2024-02-26T12:09:12;95832.66;;;10.76;100.00
75290;BME280;63883;48.996;20.804;2024-02-26T12:11:40;95831.91;;;10.74;100.00
75290;BME280;63883;48.996;20.804;2024-02-26T12:14:08;95825.91;;;10.75;100.00
75290;BME280;63883;48.996;20.804;2024-02-26T12:16:40;95826.47;;;10.82;100.00
75290;BME280;63883;48.996;20.804;2024-02-26T12:19:10;95823.00;;;10.84;100.00
75290;BME280;63883;48.996;20.804;2024-02-26T12:21:37;95827.84;;;10.90;100.00
75290;BME280;63883;48.996;20.804;2024-02-26T12:24:13;95823.16;;;11.02;100.00
75290;BME280;63883;48.996;20.804;2024-02-26T12:26:39;95822.00;;;11.09;100.00
75290;BME280;63883;48.996;20.804;2024-02-26T12:29:06;95814.13;;;11.13;100.00
75290;BME280;63883;48.996;20.804;2024-02-26T12:31:33;95824.81;;;11.23;100.00
75290;BME280;63883;48.996;20.804;2024-02-26T12:34:00;95820.91;;;11.14;100.00
75290;BME280;63883;48.996;20.804;2024-02-26T12:36:26;95822.00;;;11.09;100.00
75290;BME280;63883;48.996;20.804;2024-02-26T12:38:52;95823.41;;;11.16;100.00
75290;BME280;63883;48.996;20.804;2024-02-26T12:41:18;95821.06;;;11.10;100.00
75290;BME280;63883;48.996;20.804;2024-02-26T12:43:44;95820.84;;;11.16;100.00
75290;BME280;63883;48.996;20.804;2024-02-26T12:46:10;95825.81;;;11.19;100.00
75290;BME280;63883;48.996;20.804;2024-02-26T12:48:36;95825.25;;;11.12;100.00